Time;durP1;ratioP1;P1;durP2;ratioP2;P2;SDS_P1;SDS_P2;PMS_P1;PMS_P2;Temp;Humidity;BMP_temperature;BMP_pressure;BME280_temperature;BME280_humidity;BME280_pressure;Samples;Min_cycle;Max_cycle;Signal;HPM_P1;HPM_P2
2023/10/03 04:26:32;;;;;;;;;;;;;;;20.01;68.49;97302.09;4270314;27;10369;-60
2023/10/03 04:28:35;;;;;;;;;;;;;;;20.28;67.76;97291.59;4261710;27;5812;-61
2023/10/03 04:30:39;;;;;;;;;;;;;;;20.52;67.35;97286.09;4248547;27;5644;-60
2023/10/03 04:32:42;;;;;;;;;;;;;;;20.70;66.45;97296.56;4263182;27;5732;-61
2023/10/03 04:34:45;;;;;;;;;;;;;;;20.84;66.04;97292.50;4257132;27;6477;-61
2023/10/03 04:36:48;;;;;;;;;;;;;;;20.94;65.68;97295.31;4262128;27;5738;-62
2023/10/03 04:38:51;;;;;;;;;;;;;;;21.04;65.37;97293.84;4260826;27;5759;-61
2023/10/03 04:40:53;;;;;;;;;;;;;;;21.12;65.20;97302.28;4256934;27;6443;-61
2023/10/03 04:42:57;;;;;;;;;;;;;;;21.18;64.65;97295.94;4261204;27;5742;-61
2023/10/03 04:44:59;;;;;;;;;;;;;;;21.25;64.69;97300.31;4264216;27;5738;-60
2023/10/03 04:47:02;;;;;;;;;;;;;;;21.27;64.41;97304.41;4262149;27;5664;-61
2023/10/03 04:49:07;;;;;;;;;;;;;;;21.30;64.13;97306.63;4258374;27;5691;-61
2023/10/03 04:51:14;;;;;;;;;;;;;;;21.32;63.83;97304.47;4257699;27;5739;-60
2023/10/03 04:53:18;;;;;;;;;;;;;;;21.34;63.36;97310.41;4255678;27;5862;-61
2023/10/03 04:55:21;;;;;;;;;;;;;;;21.35;63.45;97317.44;4261556;27;5612;-61
2023/10/03 04:57:26;;;;;;;;;;;;;;;21.38;63.04;97313.41;4256252;27;5785;-61
2023/10/03 04:59:31;;;;;;;;;;;;;;;21.39;62.96;97315.03;4261505;27;5643;-61
2023/10/03 05:01:34;;;;;;;;;;;;;;;21.40;62.92;97313.97;4259654;27;5818;-61
2023/10/03 05:03:38;;;;;;;;;;;;;;;21.39;62.26;97317.72;4261035;27;5740;-71
2023/10/03 05:05:41;;;;;;;;;;;;;;;21.40;61.98;97313.97;4261989;27;5867;-67
2023/10/03 05:07:44;;;;;;;;;;;;;;;21.38;62.13;97316.91;4253216;27;5083;-67
2023/10/03 05:09:48;;;;;;;;;;;;;;;21.36;61.98;97324.44;4251334;27;5640;-67
2023/10/03 05:11:51;;;;;;;;;;;;;;;21.35;61.79;97324.69;4262961;27;5777;-67
2023/10/03 05:13:55;;;;;;;;;;;;;;;21.35;61.81;97328.19;4255131;27;5844;-67
2023/10/03 05:16:00;;;;;;;;;;;;;;;21.36;61.90;97324.44;4255863;27;6337;-66
2023/10/03 05:18:03;;;;;;;;;;;;;;;21.35;61.77;97324.69;4262628;27;6333;-66
2023/10/03 05:20:07;;;;;;;;;;;;;;;21.35;61.54;97322.81;4257627;27;5740;-66
2023/10/03 05:22:13;;;;;;;;;;;;;;;21.37;61.36;97330.63;4248868;27;5821;-66
2023/10/03 05:24:16;;;;;;;;;;;;;;;21.34;61.51;97326.56;4256751;27;6669;-66
2023/10/03 05:26:19;;;;;;;;;;;;;;;21.34;61.36;97326.56;4255177;27;5628;-66
2023/10/03 05:28:22;;;;;;;;;;;;;;;21.33;61.55;97330.31;4246800;27;6324;-66
2023/10/03 05:30:25;;;;;;;;;;;;;;;21.32;61.49;97327.88;4245085;27;6170;-66
2023/10/03 05:32:29;;;;;;;;;;;;;;;21.34;61.23;97328.44;4241700;27;5714;-66
2023/10/03 05:34:33;;;;;;;;;;;;;;;21.34;61.05;97331.94;4246497;27;5632;-66
2023/10/03 05:36:36;;;;;;;;;;;;;;;21.35;61.33;97332.75;4246328;27;6855;-59
2023/10/03 05:38:40;;;;;;;;;;;;;;;21.36;61.11;97332.50;4239496;27;5743;-59
2023/10/03 05:40:44;;;;;;;;;;;;;;;21.40;60.77;97324.72;4250974;27;5623;-59
2023/10/03 05:42:48;;;;;;;;;;;;;;;21.42;61.12;97323.44;4249511;27;5726;-59
2023/10/03 05:44:53;;;;;;;;;;;;;;;21.43;60.98;97326.94;4249416;27;5624;-59
2023/10/03 05:46:56;;;;;;;;;;;;;;;21.43;60.79;97326.94;4244411;27;5660;-59
2023/10/03 05:49:00;;;;;;;;;;;;;;;21.44;60.59;97337.44;4244372;27;5635;-59
2023/10/03 05:51:05;;;;;;;;;;;;;;;21.44;60.51;97324.00;4252569;27;5845;-59
2023/10/03 05:53:08;;;;;;;;;;;;;;;21.44;60.62;97329.38;4247930;27;6441;-60
2023/10/03 05:55:12;;;;;;;;;;;;;;;21.45;60.57;97324.81;4253101;27;6305;-58
2023/10/03 05:57:15;;;;;;;;;;;;;;;21.45;60.52;97328.31;4252825;27;5811;-59
2023/10/03 05:59:17;;;;;;;;;;;;;;;21.45;60.42;97327.50;4237288;27;5654;-59
2023/10/03 06:01:20;;;;;;;;;;;;;;;21.45;60.52;97338.25;4236079;28;5665;-59
2023/10/03 06:03:23;;;;;;;;;;;;;;;21.44;60.29;97336.63;4236401;28;5681;-59
2023/10/03 06:05:29;;;;;;;;;;;;;;;21.45;60.34;97338.25;4235043;28;5616;-59
2023/10/03 06:07:32;;;;;;;;;;;;;;;21.44;59.92;97337.44;4236359;28;5653;-59
2023/10/03 06:09:35;;;;;;;;;;;;;;;21.44;60.04;97342.03;4236173;28;5732;-58
2023/10/03 06:11:38;;;;;;;;;;;;;;;21.44;59.90;97337.44;4235936;28;5649;-59
2023/10/03 06:13:44;;;;;;;;;;;;;;;21.43;59.84;97340.41;4235942;28;5637;-58
2023/10/03 06:15:47;;;;;;;;;;;;;;;21.44;60.18;97345.53;4235658;28;5864;-58
2023/10/03 06:17:52;;;;;;;;;;;;;;;21.45;59.91;97347.16;4235837;28;5765;-58
2023/10/03 06:19:55;;;;;;;;;;;;;;;21.45;59.62;97347.16;4235936;28;5656;-58
2023/10/03 06:21:59;;;;;;;;;;;;;;;21.45;59.89;97349.84;4235768;28;5916;-59
2023/10/03 06:24:03;;;;;;;;;;;;;;;21.46;59.76;97356.84;4235788;28;5681;-59
2023/10/03 06:26:07;;;;;;;;;;;;;;;21.46;59.52;97359.53;4235570;28;5645;-59
2023/10/03 06:28:09;;;;;;;;;;;;;;;21.47;59.48;97363.84;4235627;28;5709;-59
2023/10/03 06:30:14;;;;;;;;;;;;;;;21.48;59.31;97360.09;4235661;28;5063;-59
2023/10/03 06:32:17;;;;;;;;;;;;;;;21.49;59.51;97366.28;4235418;28;5732;-58
2023/10/03 06:34:20;;;;;;;;;;;;;;;21.50;59.68;97371.41;4235583;28;6383;-58
2023/10/03 06:36:22;;;;;;;;;;;;;;;21.50;59.40;97374.09;4251497;27;5715;-58
2023/10/03 06:38:27;;;;;;;;;;;;;;;21.50;59.36;97374.09;4251494;27;6448;-57
2023/10/03 06:40:30;;;;;;;;;;;;;;;21.51;58.98;97377.59;4252518;27;5726;-57
2023/10/03 06:42:34;;;;;;;;;;;;;;;21.53;59.13;97388.13;4252259;27;5620;-58
2023/10/03 06:44:37;;;;;;;;;;;;;;;21.53;59.27;97385.44;4250821;27;5632;-58
2023/10/03 06:46:42;;;;;;;;;;;;;;;21.54;58.81;97384.38;4236864;27;5740;-58
2023/10/03 06:48:46;;;;;;;;;;;;;;;21.56;59.07;97387.63;4242977;27;5669;-58
2023/10/03 06:50:48;;;;;;;;;;;;;;;21.56;58.60;97396.50;4243209;27;5706;-57
2023/10/03 06:52:52;;;;;;;;;;;;;;;21.58;58.71;97397.06;4240458;27;5696;-58
2023/10/03 06:54:56;;;;;;;;;;;;;;;21.59;59.04;97398.69;4243833;27;6330;-58
2023/10/03 06:56:59;;;;;;;;;;;;;;;21.62;58.81;97400.06;4243640;27;5740;-58
2023/10/03 06:59:04;;;;;;;;;;;;;;;21.62;58.55;97386.63;4235086;28;5646;-59
2023/10/03 07:01:08;;;;;;;;;;;;;;;21.62;58.34;97397.38;4240783;27;5647;-59
2023/10/03 07:03:14;;;;;;;;;;;;;;;21.63;58.46;97391.78;4243592;27;5624;-59
2023/10/03 07:05:16;;;;;;;;;;;;;;;21.64;58.56;97400.66;4236323;27;7169;-58
2023/10/03 07:07:19;;;;;;;;;;;;;;;21.65;58.52;97404.97;4235020;28;6335;-59
2023/10/03 07:09:23;;;;;;;;;;;;;;;21.64;58.49;97406.03;4251564;27;5778;-58
2023/10/03 07:11:28;;;;;;;;;;;;;;;21.65;58.71;97402.28;4243597;27;5657;-58
2023/10/03 07:13:30;;;;;;;;;;;;;;;21.66;58.39;97406.59;4243007;27;5683;-58
2023/10/03 07:15:33;;;;;;;;;;;;;;;21.66;58.30;97404.72;4234248;28;6338;-59
2023/10/03 07:17:36;;;;;;;;;;;;;;;21.68;58.11;97412.53;4243311;27;5604;-59
2023/10/03 07:19:40;;;;;;;;;;;;;;;21.68;58.41;97410.66;4245381;27;5739;-58
2023/10/03 07:21:44;;;;;;;;;;;;;;;21.70;58.17;97410.41;4252120;27;5652;-59
2023/10/03 07:23:47;;;;;;;;;;;;;;;21.71;58.21;97423.63;4240543;27;5744;-58
2023/10/03 07:25:50;;;;;;;;;;;;;;;21.72;57.85;97424.44;4237715;27;5641;-58
2023/10/03 07:27:54;;;;;;;;;;;;;;;21.72;58.15;97424.44;4248326;27;5658;-58
2023/10/03 07:29:57;;;;;;;;;;;;;;;21.73;57.93;97429.56;4234931;28;5657;-58
2023/10/03 07:32:00;;;;;;;;;;;;;;;21.75;57.83;97426.66;4242872;27;5677;-58
2023/10/03 07:34:03;;;;;;;;;;;;;;;21.76;58.02;97421.00;4240047;27;5628;-58
2023/10/03 07:36:07;;;;;;;;;;;;;;;21.78;57.64;97424.25;4251845;27;5628;-59
2023/10/03 07:38:11;;;;;;;;;;;;;;;21.82;57.50;97431.81;4245514;27;5645;-59
2023/10/03 07:40:14;;;;;;;;;;;;;;;21.83;57.69;97426.19;4234819;28;5672;-58
2023/10/03 07:42:17;;;;;;;;;;;;;;;21.81;57.58;97428.31;4241848;27;5106;-58
2023/10/03 07:44:25;;;;;;;;;;;;;;;21.83;57.50;97420.00;4242628;27;5114;-58
2023/10/03 07:46:28;;;;;;;;;;;;;;;21.85;57.17;97428.63;4243026;27;5740;-58
2023/10/03 07:48:32;;;;;;;;;;;;;;;21.85;57.15;97434.00;4243172;27;5776;-58
2023/10/03 07:50:37;;;;;;;;;;;;;;;21.83;57.20;97426.19;4242950;27;5681;-58
2023/10/03 07:52:40;;;;;;;;;;;;;;;21.83;57.57;97434.28;4249778;27;5632;-58
2023/10/03 07:54:44;;;;;;;;;;;;;;;21.83;57.57;97431.56;4243137;27;5620;-59
2023/10/03 07:56:48;;;;;;;;;;;;;;;21.82;57.43;97440.72;4234708;28;5653;-59
2023/10/03 07:58:53;;;;;;;;;;;;;;;21.81;57.25;97433.72;4234556;28;5781;-59
2023/10/03 08:00:58;;;;;;;;;;;;;;;21.81;57.47;97439.09;4234541;28;5665;-58
2023/10/03 08:03:04;;;;;;;;;;;;;;;21.80;57.05;97430.19;4234742;28;6449;-59
2023/10/03 08:05:09;;;;;;;;;;;;;;;21.81;57.40;97433.72;4234679;28;5638;-58
2023/10/03 08:07:21;;;;;;;;;;;;;;;21.84;57.12;97433.19;4234608;28;5649;-59
2023/10/03 08:09:25;;;;;;;;;;;;;;;21.86;57.09;97433.78;4234636;28;5793;-59
2023/10/03 08:11:29;;;;;;;;;;;;;;;21.89;57.21;97430.59;4234604;28;5190;-59
2023/10/03 08:13:38;;;;;;;;;;;;;;;21.90;57.33;97428.72;4234575;28;5812;-59
2023/10/03 08:15:42;;;;;;;;;;;;;;;21.92;57.36;97431.97;4234515;28;5656;-59
2023/10/03 08:17:49;;;;;;;;;;;;;;;21.94;56.93;97436.03;4234199;28;6315;-59
2023/10/03 08:19:52;;;;;;;;;;;;;;;21.94;57.02;97430.66;4234489;28;5645;-59
2023/10/03 08:21:56;;;;;;;;;;;;;;;21.94;56.64;97433.34;4234390;28;5637;-59
2023/10/03 08:24:09;;;;;;;;;;;;;;;21.92;56.67;97430.09;4234518;28;5831;-59
2023/10/03 08:26:13;;;;;;;;;;;;;;;21.94;57.06;97433.34;4234205;28;5728;-59
2023/10/03 08:28:20;;;;;;;;;;;;;;;21.94;56.67;97433.34;4234322;28;5797;-59
2023/10/03 08:30:29;;;;;;;;;;;;;;;21.94;56.43;97438.72;4234408;28;5704;-59
2023/10/03 08:32:39;;;;;;;;;;;;;;;21.96;56.63;97438.47;4234219;28;5649;-59
2023/10/03 08:34:44;;;;;;;;;;;;;;;21.97;56.65;97440.94;4234460;28;5649;-59
2023/10/03 08:36:51;;;;;;;;;;;;;;;21.97;56.98;97451.69;4234291;28;5760;-59
2023/10/03 08:39:04;;;;;;;;;;;;;;;21.99;56.80;97452.25;4234537;28;5649;-59
2023/10/03 08:41:08;;;;;;;;;;;;;;;22.02;57.06;97454.44;4234195;28;5638;-59
2023/10/03 08:43:14;;;;;;;;;;;;;;;22.05;56.98;97459.31;4234281;28;5816;-58
2023/10/03 08:45:22;;;;;;;;;;;;;;;22.07;56.76;97462.59;4234180;28;5653;-58
2023/10/03 08:47:29;;;;;;;;;;;;;;;22.10;56.82;97457.81;4234025;28;6323;-59
2023/10/03 08:49:39;;;;;;;;;;;;;;;22.10;57.44;97457.81;4235055;27;5642;-58
2023/10/03 08:51:43;;;;;;;;;;;;;;;22.09;57.16;97465.06;4251318;27;5714;-59
2023/10/03 08:53:48;;;;;;;;;;;;;;;22.10;57.01;97471.28;4251320;27;5827;-59
2023/10/03 08:55:51;;;;;;;;;;;;;;;22.11;57.25;97470.19;4251139;27;5719;-59
2023/10/03 08:57:59;;;;;;;;;;;;;;;22.12;57.59;97466.44;4251082;27;5699;-59
2023/10/03 09:00:04;;;;;;;;;;;;;;;22.15;57.63;97474.00;4237770;27;5884;-58
2023/10/03 09:02:15;;;;;;;;;;;;;;;22.17;57.40;97474.56;4235744;28;5645;-59
2023/10/03 09:04:18;;;;;;;;;;;;;;;22.18;57.14;97470.81;4237399;28;5729;-58
2023/10/03 09:06:21;;;;;;;;;;;;;;;22.20;57.61;97468.69;4237370;28;5652;-58
2023/10/03 09:08:27;;;;;;;;;;;;;;;22.22;57.25;97471.97;4237334;28;5719;-58
2023/10/03 09:10:31;;;;;;;;;;;;;;;22.21;57.20;97465.75;4236900;28;5645;-58
2023/10/03 09:12:34;;;;;;;;;;;;;;;22.24;57.10;97467.13;4237205;28;5657;-58
2023/10/03 09:14:37;;;;;;;;;;;;;;;22.24;57.18;97459.88;4237005;28;5733;-58
2023/10/03 09:16:40;;;;;;;;;;;;;;;22.26;57.40;97470.38;4236922;28;5661;-57
2023/10/03 09:18:50;;;;;;;;;;;;;;;22.27;56.92;97469.31;4236913;28;5645;-58
2023/10/03 09:20:59;;;;;;;;;;;;;;;22.28;57.12;97470.94;4237178;28;5786;-58
2023/10/03 09:23:05;;;;;;;;;;;;;;;22.29;57.19;97467.19;4237118;28;5153;-58
2023/10/03 09:25:10;;;;;;;;;;;;;;;22.30;57.44;97474.19;4236689;28;5797;-59
2023/10/03 09:27:17;;;;;;;;;;;;;;;22.30;56.98;97471.50;4236884;28;5657;-59
2023/10/03 09:29:32;;;;;;;;;;;;;;;22.31;57.11;97471.28;4237016;28;6367;-59
2023/10/03 09:31:36;;;;;;;;;;;;;;;22.33;57.31;97468.31;4236610;28;5735;-59
2023/10/03 09:33:40;;;;;;;;;;;;;;;22.36;57.19;97471.31;4237034;28;5681;-59
2023/10/03 09:35:57;;;;;;;;;;;;;;;22.37;57.11;97475.63;4236791;28;5056;-57
2023/10/03 09:38:05;;;;;;;;;;;;;;;22.36;56.97;97467.81;4237030;28;5060;-58
2023/10/03 09:40:17;;;;;;;;;;;;;;;22.36;57.27;97478.59;4236941;28;5731;-58
2023/10/03 09:42:23;;;;;;;;;;;;;;;22.36;56.97;97457.03;4236904;28;6361;-58
2023/10/03 09:44:30;;;;;;;;;;;;;;;22.39;56.66;97461.91;4236682;27;6323;-58
2023/10/03 09:46:38;;;;;;;;;;;;;;;22.42;56.73;97469.47;4236615;28;5661;-58
2023/10/03 09:48:42;;;;;;;;;;;;;;;22.42;56.76;97450.63;4247186;27;5643;-58
2023/10/03 09:50:51;;;;;;;;;;;;;;;22.44;56.99;97464.69;4253627;27;5639;-58
2023/10/03 09:53:01;;;;;;;;;;;;;;;22.45;56.70;97462.78;4253507;27;5632;-58
2023/10/03 09:55:17;;;;;;;;;;;;;;;22.46;56.60;97461.72;4253590;27;5752;-58
2023/10/03 09:57:22;;;;;;;;;;;;;;;22.48;56.96;97465.78;4253578;27;5687;-58
2023/10/03 09:59:24;;;;;;;;;;;;;;;22.47;56.80;97457.97;4253364;27;5756;-58
2023/10/03 10:01:30;;;;;;;;;;;;;;;22.46;56.72;97459.84;4253207;27;5786;-58
2023/10/03 10:03:38;;;;;;;;;;;;;;;22.48;56.56;97463.09;4253454;27;5636;-58
2023/10/03 10:05:51;;;;;;;;;;;;;;;22.49;57.02;97464.72;4253544;27;5654;-59
2023/10/03 10:08:08;;;;;;;;;;;;;;;22.50;56.59;97457.44;4253277;27;5624;-59
2023/10/03 10:10:14;;;;;;;;;;;;;;;22.53;56.55;97463.13;4253422;27;5632;-59
2023/10/03 10:12:19;;;;;;;;;;;;;;;22.54;56.91;97458.59;4253253;27;6342;-59
2023/10/03 10:14:23;;;;;;;;;;;;;;;22.54;56.51;97459.41;4253160;27;5639;-59
2023/10/03 10:16:28;;;;;;;;;;;;;;;22.56;56.72;97467.22;4253009;27;5885;-59
2023/10/03 10:19:01;;;;;;;;;;;;;;;22.56;56.60;97459.97;4252973;27;5624;-59
2023/10/03 10:21:25;;;;;;;;;;;;;;;22.60;56.52;97462.94;4253011;27;5620;-59
2023/10/03 10:23:35;;;;;;;;;;;;;;;22.61;56.71;97460.00;4253066;27;5632;-59
2023/10/03 10:25:41;;;;;;;;;;;;;;;22.62;56.37;97455.41;4252781;27;5715;-60
2023/10/03 10:27:45;;;;;;;;;;;;;;;22.65;56.28;97457.59;4253139;27;5631;-59
2023/10/03 10:30:00;;;;;;;;;;;;;;;22.67;55.91;97459.00;4253075;27;5675;-59
2023/10/03 10:32:17;;;;;;;;;;;;;;;22.69;56.18;97455.22;4252793;27;5624;-58
2023/10/03 10:34:32;;;;;;;;;;;;;;;22.68;55.96;97446.34;4253091;27;5632;-58
2023/10/03 10:37:01;;;;;;;;;;;;;;;22.69;56.09;97444.44;4251550;27;5639;-58
2023/10/03 10:39:04;;;;;;;;;;;;;;;22.71;55.81;97439.63;4235961;28;5191;-58
2023/10/03 10:41:30;;;;;;;;;;;;;;;22.74;55.55;97444.47;4235817;28;5653;-59
2023/10/03 10:43:33;;;;;;;;;;;;;;;22.74;55.51;97441.78;4235794;28;5125;-59
2023/10/03 10:45:41;;;;;;;;;;;;;;;22.75;55.78;97443.41;4235609;28;5765;-59
2023/10/03 10:47:46;;;;;;;;;;;;;;;22.74;55.45;97431.00;4235470;28;6399;-59
2023/10/03 10:49:56;;;;;;;;;;;;;;;22.75;55.13;97438.84;4235644;28;5657;-59
2023/10/03 10:52:19;;;;;;;;;;;;;;;22.75;54.97;97428.06;4235010;28;5641;-59
2023/10/03 10:54:23;;;;;;;;;;;;;;;22.75;54.79;97436.13;4235419;28;5653;-59
2023/10/03 10:56:28;;;;;;;;;;;;;;;22.77;54.29;97430.53;4235382;28;5649;-59
2023/10/03 10:58:31;;;;;;;;;;;;;;;22.77;54.41;97433.22;4235422;28;5630;-59
2023/10/03 11:00:34;;;;;;;;;;;;;;;22.77;53.87;97434.03;4235484;28;5187;-59
2023/10/03 11:02:43;;;;;;;;;;;;;;;22.79;54.13;97439.16;4235109;28;5672;-59
2023/10/03 11:04:53;;;;;;;;;;;;;;;22.79;53.90;97434.59;4235364;28;5740;-59
2023/10/03 11:06:56;;;;;;;;;;;;;;;22.82;53.59;97444.03;4235303;28;5649;-59
2023/10/03 11:08:58;;;;;;;;;;;;;;;22.82;53.41;97435.94;4235353;28;5645;-59
2023/10/03 11:11:01;;;;;;;;;;;;;;;22.82;53.63;97435.94;4235264;28;5645;-59
2023/10/03 11:13:07;;;;;;;;;;;;;;;22.82;53.19;97425.97;4235103;28;5641;-59
2023/10/03 11:15:12;;;;;;;;;;;;;;;22.85;53.17;97422.78;4235210;28;5779;-59
2023/10/03 11:17:16;;;;;;;;;;;;;;;22.86;52.74;97429.81;4234858;28;5947;-58
2023/10/03 11:19:20;;;;;;;;;;;;;;;22.87;53.19;97427.91;4235169;28;5661;-58
2023/10/03 11:21:23;;;;;;;;;;;;;;;22.88;53.00;97416.91;4235130;28;5645;-58
2023/10/03 11:23:26;;;;;;;;;;;;;;;22.89;52.75;97417.72;4234989;28;5649;-58
2023/10/03 11:25:30;;;;;;;;;;;;;;;22.88;52.23;97413.41;4234371;27;5736;-58
2023/10/03 11:27:33;;;;;;;;;;;;;;;22.86;52.49;97423.59;4252052;27;5620;-59
2023/10/03 11:29:43;;;;;;;;;;;;;;;22.87;52.25;97417.13;4252023;27;5722;-59
2023/10/03 11:31:45;;;;;;;;;;;;;;;22.90;52.01;97419.34;4251914;27;5616;-59
2023/10/03 11:33:48;;;;;;;;;;;;;;;22.92;51.73;97409.91;4252017;27;5624;-59
2023/10/03 11:35:54;;;;;;;;;;;;;;;22.92;51.73;97406.41;4252004;27;5717;-59
2023/10/03 11:38:06;;;;;;;;;;;;;;;22.94;52.14;97404.28;4252093;27;5627;-59
2023/10/03 11:40:14;;;;;;;;;;;;;;;22.97;51.74;97408.31;4251758;27;5616;-59
2023/10/03 11:42:25;;;;;;;;;;;;;;;22.97;51.88;97395.66;4251830;27;5683;-59
2023/10/03 11:44:29;;;;;;;;;;;;;;;23.00;51.83;97403.25;4251728;27;5616;-59
2023/10/03 11:46:37;;;;;;;;;;;;;;;23.04;51.71;97417.84;4251649;27;5632;-59
2023/10/03 11:48:40;;;;;;;;;;;;;;;23.06;51.47;97412.19;4251914;27;5636;-60
2023/10/03 11:50:44;;;;;;;;;;;;;;;23.07;51.97;97408.41;4251715;27;5628;-59
2023/10/03 11:52:48;;;;;;;;;;;;;;;23.08;51.61;97410.03;4251719;27;5750;-59
2023/10/03 11:54:51;;;;;;;;;;;;;;;23.09;52.03;97409.78;4251683;27;5748;-59
2023/10/03 11:56:56;;;;;;;;;;;;;;;23.10;51.68;97414.09;4251660;27;5075;-59
2023/10/03 11:59:00;;;;;;;;;;;;;;;23.13;52.27;97402.81;4251577;27;5620;-59
2023/10/03 12:01:03;;;;;;;;;;;;;;;23.17;52.34;97403.09;4251656;27;5640;-60
2023/10/03 12:03:09;;;;;;;;;;;;;;;23.23;52.27;97408.28;4251415;27;6328;-59
2023/10/03 12:05:12;;;;;;;;;;;;;;;23.28;52.22;97409.38;4251698;27;5704;-59
2023/10/03 12:07:15;;;;;;;;;;;;;;;23.32;52.60;97408.59;4251345;27;5637;-59
2023/10/03 12:09:20;;;;;;;;;;;;;;;23.38;52.41;97417.53;4251608;27;5692;-59
2023/10/03 12:11:24;;;;;;;;;;;;;;;23.41;52.36;97419.72;4251451;27;5640;-59
2023/10/03 12:13:27;;;;;;;;;;;;;;;23.42;52.64;97410.53;4251382;27;5818;-59
2023/10/03 12:15:30;;;;;;;;;;;;;;;23.42;52.94;97416.75;4251343;27;5629;-59
2023/10/03 12:17:33;;;;;;;;;;;;;;;23.43;53.02;97423.78;4251152;27;5638;-60
2023/10/03 12:19:36;;;;;;;;;;;;;;;23.46;52.91;97412.47;4251470;27;5711;-58
2023/10/03 12:21:39;;;;;;;;;;;;;;;23.48;52.82;97409.53;4251175;27;5768;-58
2023/10/03 12:23:43;;;;;;;;;;;;;;;23.50;53.20;97415.47;4251023;27;5624;-58
2023/10/03 12:25:48;;;;;;;;;;;;;;;23.53;53.48;97412.22;4250877;27;5726;-60
2023/10/03 12:27:51;;;;;;;;;;;;;;;23.54;53.19;97408.47;4251084;27;5880;-58
2023/10/03 12:29:54;;;;;;;;;;;;;;;23.56;53.60;97411.72;4247062;27;7801;-58
2023/10/03 12:31:58;;;;;;;;;;;;;;;23.56;53.58;97409.03;4233824;28;5777;-58
2023/10/03 12:34:01;;;;;;;;;;;;;;;23.58;53.66;97412.31;4234181;28;5662;-58
2023/10/03 12:36:04;;;;;;;;;;;;;;;23.60;53.48;97412.84;4233965;28;5633;-58
2023/10/03 12:38:11;;;;;;;;;;;;;;;23.63;53.95;97411.50;4237660;28;5654;-58
2023/10/03 12:40:17;;;;;;;;;;;;;;;23.69;53.82;97411.28;4237680;28;5796;-58
2023/10/03 12:42:20;;;;;;;;;;;;;;;23.71;54.03;97411.84;4237910;28;5660;-58
2023/10/03 12:44:23;;;;;;;;;;;;;;;23.74;53.77;97418.59;4253748;27;5616;-58
2023/10/03 12:46:27;;;;;;;;;;;;;;;23.78;54.24;97415.13;4254592;27;5631;-58
2023/10/03 12:48:31;;;;;;;;;;;;;;;23.82;53.84;97415.41;4254739;27;6507;-59
2023/10/03 12:50:35;;;;;;;;;;;;;;;23.85;54.31;97419.47;4254599;27;5722;-58
2023/10/03 12:52:39;;;;;;;;;;;;;;;23.88;54.37;97424.31;4254029;27;5812;-59
2023/10/03 12:54:42;;;;;;;;;;;;;;;23.93;54.41;97432.47;4254564;27;5723;-59
2023/10/03 12:56:45;;;;;;;;;;;;;;;23.95;54.47;97436.53;4254448;27;5687;-59
2023/10/03 12:58:49;;;;;;;;;;;;;;;23.98;54.87;97443.28;4254425;27;5632;-60
2023/10/03 13:00:52;;;;;;;;;;;;;;;24.03;54.69;97437.91;4254437;27;5716;-59
2023/10/03 13:02:57;;;;;;;;;;;;;;;24.04;54.97;97445.75;4241660;27;5669;-60
2023/10/03 13:05:01;;;;;;;;;;;;;;;24.03;55.13;97441.44;4237461;28;5795;-60
2023/10/03 13:07:03;;;;;;;;;;;;;;;24.04;54.92;97445.75;4237309;28;5685;-60
2023/10/03 13:09:06;;;;;;;;;;;;;;;24.05;55.11;97446.56;4237247;28;6195;-60
2023/10/03 13:11:13;;;;;;;;;;;;;;;24.07;55.20;97455.22;4237337;28;5637;-60
2023/10/03 13:13:16;;;;;;;;;;;;;;;24.06;55.57;97457.09;4237273;28;5766;-60
2023/10/03 13:15:21;;;;;;;;;;;;;;;24.07;55.60;97455.22;4244222;27;5628;-59
2023/10/03 13:17:24;;;;;;;;;;;;;;;24.08;55.23;97454.94;4253372;27;5848;-59
2023/10/03 13:19:28;;;;;;;;;;;;;;;24.09;55.77;97471.97;4253950;27;5624;-59
2023/10/03 13:21:33;;;;;;;;;;;;;;;24.10;55.82;97466.28;4254061;27;5684;-59
2023/10/03 13:23:36;;;;;;;;;;;;;;;24.12;55.49;97471.44;4254053;27;5774;-59
2023/10/03 13:25:40;;;;;;;;;;;;;;;24.14;55.68;97471.19;4253828;27;5631;-59
2023/10/03 13:27:42;;;;;;;;;;;;;;;24.13;55.64;97464.97;4253613;27;6357;-59
2023/10/03 13:29:45;;;;;;;;;;;;;;;24.14;55.30;97472.00;4253877;27;5648;-59
2023/10/03 13:31:52;;;;;;;;;;;;;;;24.14;55.30;97466.59;4253627;27;5624;-59
2023/10/03 13:33:55;;;;;;;;;;;;;;;24.14;55.30;97480.09;4249921;27;5729;-59
2023/10/03 13:35:58;;;;;;;;;;;;;;;24.14;55.59;97482.81;4236737;28;5784;-59
2023/10/03 13:38:00;;;;;;;;;;;;;;;24.13;55.50;97485.78;4236898;28;5696;-59
2023/10/03 13:40:05;;;;;;;;;;;;;;;24.13;55.78;97494.69;4236701;28;5633;-59
2023/10/03 13:42:09;;;;;;;;;;;;;;;24.14;55.85;97490.91;4236905;28;5152;-59
2023/10/03 13:44:15;;;;;;;;;;;;;;;24.14;55.79;97493.59;4236681;28;5657;-59
2023/10/03 13:46:18;;;;;;;;;;;;;;;24.13;55.84;97491.19;4236777;28;5732;-59
2023/10/03 13:48:23;;;;;;;;;;;;;;;24.12;55.84;97495.72;4236142;28;6453;-60
2023/10/03 13:50:26;;;;;;;;;;;;;;;24.11;56.19;97503.03;4244891;27;5730;-59
2023/10/03 13:52:30;;;;;;;;;;;;;;;24.09;56.22;97499.78;4253552;27;5620;-59
2023/10/03 13:54:36;;;;;;;;;;;;;;;24.10;56.41;97503.28;4253574;27;5616;-59
2023/10/03 13:56:39;;;;;;;;;;;;;;;24.08;56.32;97500.03;4246902;27;6013;-59
2023/10/03 13:58:42;;;;;;;;;;;;;;;24.08;56.59;97506.25;4243658;27;5635;-59
2023/10/03 14:00:45;;;;;;;;;;;;;;;24.07;56.43;97509.22;4247392;27;5632;-59
2023/10/03 14:02:50;;;;;;;;;;;;;;;24.06;56.67;97513.81;4241496;27;5664;-59
2023/10/03 14:04:55;;;;;;;;;;;;;;;24.04;56.54;97518.69;4235603;28;5644;-59
2023/10/03 14:06:58;;;;;;;;;;;;;;;24.04;56.89;97525.97;4246731;27;5843;-59
2023/10/03 14:09:01;;;;;;;;;;;;;;;24.01;56.69;97526.47;4252501;27;5683;-59
2023/10/03 14:11:05;;;;;;;;;;;;;;;24.00;56.73;97519.44;4253003;27;5635;-60
2023/10/03 14:13:07;;;;;;;;;;;;;;;23.99;56.91;97517.81;4253222;27;5619;-58
2023/10/03 14:15:11;;;;;;;;;;;;;;;23.99;57.26;97521.31;4253116;27;5653;-59
2023/10/03 14:17:14;;;;;;;;;;;;;;;23.99;57.05;97528.63;4245490;27;5694;-58
2023/10/03 14:19:19;;;;;;;;;;;;;;;23.98;57.20;97532.41;4245435;27;5758;-59
2023/10/03 14:21:24;;;;;;;;;;;;;;;23.95;56.94;97528.34;4251732;27;5723;-59
2023/10/03 14:23:48;;;;;;;;;;;;;;;23.95;57.39;97527.53;4245432;27;5798;-59
2023/10/03 14:25:51;;;;;;;;;;;;;;;23.93;57.40;97535.06;4246971;27;5747;-58
2023/10/03 14:27:54;;;;;;;;;;;;;;;23.94;57.39;97542.91;4248951;27;5760;-59
2023/10/03 14:29:56;;;;;;;;;;;;;;;23.92;57.44;97536.16;4242075;27;5660;-59
2023/10/03 14:32:00;;;;;;;;;;;;;;;23.91;56.99;97539.94;4242823;27;5653;-59
2023/10/03 14:34:05;;;;;;;;;;;;;;;23.90;56.89;97535.56;4241937;27;5665;-59
2023/10/03 14:36:12;;;;;;;;;;;;;;;23.90;56.91;97540.97;4242011;27;5630;-59
2023/10/03 14:38:18;;;;;;;;;;;;;;;23.89;56.62;97550.97;4250358;27;5624;-59
2023/10/03 14:40:21;;;;;;;;;;;;;;;23.90;56.99;97546.38;4248385;27;5807;-59
2023/10/03 14:42:24;;;;;;;;;;;;;;;23.88;56.46;97549.34;4251786;27;5728;-59
2023/10/03 14:44:27;;;;;;;;;;;;;;;23.90;56.82;97546.38;4249717;27;5699;-59
2023/10/03 14:46:30;;;;;;;;;;;;;;;23.91;56.39;97539.94;4239816;27;5860;-58
2023/10/03 14:48:33;;;;;;;;;;;;;;;23.92;56.52;97541.56;4241884;27;5646;-59
2023/10/03 14:50:36;;;;;;;;;;;;;;;23.93;56.48;97532.38;4249317;27;5714;-59
2023/10/03 14:52:40;;;;;;;;;;;;;;;23.91;56.39;97538.03;4248826;27;5643;-59
2023/10/03 14:54:45;;;;;;;;;;;;;;;23.93;56.23;97543.19;4239002;27;5751;-58
2023/10/03 14:56:48;;;;;;;;;;;;;;;23.92;56.35;97549.66;4242268;27;5615;-58
2023/10/03 14:58:52;;;;;;;;;;;;;;;23.92;56.53;97555.06;4250098;27;5705;-59
2023/10/03 15:01:04;;;;;;;;;;;;;;;23.90;56.16;97547.22;4250572;27;5687;-58
2023/10/03 15:03:07;;;;;;;;;;;;;;;23.91;56.53;97548.03;4242165;27;5955;-58
2023/10/03 15:05:10;;;;;;;;;;;;;;;23.89;56.06;97542.06;4240648;27;5723;-59
2023/10/03 15:07:16;;;;;;;;;;;;;;;23.87;55.82;97547.72;4243599;27;5736;-59
2023/10/03 15:09:20;;;;;;;;;;;;;;;23.85;55.79;97544.47;4251619;27;5702;-59
2023/10/03 15:11:24;;;;;;;;;;;;;;;23.86;55.68;97550.69;4245748;27;5770;-59
2023/10/03 15:13:28;;;;;;;;;;;;;;;23.85;55.42;97549.06;4242765;27;5673;-60
2023/10/03 15:15:32;;;;;;;;;;;;;;;23.84;55.49;97544.72;4238194;27;5787;-59
2023/10/03 15:17:37;;;;;;;;;;;;;;;23.83;55.70;97557.41;4245591;27;5620;-59
2023/10/03 15:19:40;;;;;;;;;;;;;;;23.84;54.99;97563.63;4250268;27;5859;-57
2023/10/03 15:21:43;;;;;;;;;;;;;;;23.84;55.13;97553.66;4240246;27;5730;-58
2023/10/03 15:23:46;;;;;;;;;;;;;;;23.84;54.80;97553.66;4240299;27;9336;-58
2023/10/03 15:25:49;;;;;;;;;;;;;;;23.85;54.50;97560.66;4239909;27;5645;-59